KABQKALM

Guest
Details From KABQ - Albuquerque International Sunport
To KALM - Alamogordo White Sands Rgnl
Flight Number -
Tags Generated
Created
Modified
Stats Distance 136 nm / 251 km
Max Altitude 0 ft / 0 m
Waypoints 2
Social Downloads 0
Likes 0
Share VATSIM

Download

Looking for another format? Having issues loading an existing format? Contact us
Advertisement - Login to hide

Notes

Generated

Route

KABQ KALM

ID Type Via Altitude Latitude Longitude Leg Dist Tot Dist Heading (true) Name
O KABQ APT - 0 ft / 0 m 35.04353˚ -106.62075˚ - 0 nm - -
O KALM APT - 0 ft / 0 m 32.84861˚ -105.98611˚ 135 nm 135 nm 166° / 167° -

Altitude Profile

Advertisement - Login to hide

KABQ

Details ICAO KABQ (ABQ)
Name Albuquerque International Sunport
Region United States
Timezone America/Denver (UTC-7.0)
Stats Elevation 5,355 ft / 1,632 m (AMSL)
Location 35.039647° -106.610582°
Runways 4
Magnetic Variation 8.535° E

METAR

KABQ 170752Z 14004KT 10SM BKN150 BKN200 01/M10 A2991 RMK AO2 SLP125 T00061100

Decode

TAF

TAF KABQ 170540Z 1706/1806 13006KT P6SM BKN200 FM171200 VRB04KT P6SM SCT110 BKN150 FM172100 20006KT P6SM SCT080 BKN150 FM180200 13005KT P6SM BKN060

Decode

Departure Runways

ID Width Length Bearing (true) Bearing (mag) Surface Threshold Offset Overrun Length
03 150 ft / 46 m 10,002 ft / 3,049 m 44.66° 36.13° Concrete 0 ft / 0 m 400 ft / 122 m
08 150 ft / 46 m 13,762 ft / 4,195 m 90.43° 81.90° Concrete 1,000 ft / 305 m 550 ft / 168 m
12 150 ft / 46 m 5,998 ft / 1,828 m 128.97° 120.44° Concrete 0 ft / 0 m 0 ft / 0 m
17 150 ft / 46 m 10,023 ft / 3,055 m 183.36° 174.83° Asphalt 890 ft / 271 m 100 ft / 30 m
21 150 ft / 46 m 10,002 ft / 3,049 m 224.67° 216.14° Concrete 0 ft / 0 m 0 ft / 0 m
26 150 ft / 46 m 13,762 ft / 4,195 m 270.45° 261.92° Concrete 0 ft / 0 m 1,000 ft / 305 m
30 150 ft / 46 m 5,998 ft / 1,828 m 308.98° 300.45° Concrete 0 ft / 0 m 0 ft / 0 m
35 150 ft / 46 m 10,023 ft / 3,055 m 3.36° 354.83° Asphalt 0 ft / 0 m 200 ft / 61 m

KALM

Details ICAO KALM (ALM)
Name ALAMOGORDO WHITE SANDS RGNL
Region United States
Timezone America/Denver (UTC-7.0)
Stats Elevation 4,200 ft / 1,280 m (AMSL)
Location 32.841845° -105.988007°
Runways 2
Magnetic Variation 8.049° E

METAR

KALM 170815Z AUTO 15009KT CLR 05/M04 A2996 RMK AO2 LTG DSNT SW

Decode

TAF

Not found

Destination Runways

ID Width Length Bearing (true) Bearing (mag) Surface Threshold Offset Overrun Length
03 150 ft / 46 m 7,007 ft / 2,136 m 45.42° 37.37° Asphalt 0 ft / 0 m 0 ft / 0 m
16 200 ft / 61 m 3,573 ft / 1,089 m 173.20° 165.15° Dirt 0 ft / 0 m 0 ft / 0 m
21 150 ft / 46 m 7,007 ft / 2,136 m 225.43° 217.38° Asphalt 0 ft / 0 m 0 ft / 0 m
34 200 ft / 61 m 3,573 ft / 1,089 m 353.20° 345.15° Dirt 0 ft / 0 m 0 ft / 0 m

Popular Alternatives